Aeroporto :







RITROVATECI SU...

 
LOGIN :

Iscrizione | Disclaimer

   EN    FR    IT 

 









Sommario :    VFR   VFR Marginale   IFR   IFR Intensivo   IFR Molto Intensivo
Visibilità : 
Base nubi : 
>= 8 km
>= 3000ft
5 / 8 km
1000 / 3000 ft
1500m / 5 km
500 / 1000 ft
800 / 1500m
200 / 500 ft
< 800m
< 200 ft
Simboli :   Temporali  Nebbia  Neve Forte  Precipitazioni Forti  Vento > 20 kt






- Altitudine del aeroporto : 68 ft
- Codice IATA : YFC


CYFC - Fredericton

ULTIMO METAR :
  • 040312Z AUTO 02013KT 9SM OVC013 00/M01 A3010 RMK SLP196

METARs OBSOLETI :
  • 040302Z AUTO 02014G19KT 7SM -SN -UP OVC013 01/M01 A3010 RMK SLP196
  • 040254Z AUTO 02012G19KT 6SM -SN OVC013 01/M01 A3010 RMK SLP196
  • 040245Z AUTO 02010G18KT 9SM OVC015 01/M01 A3011 RMK SLP197
  • 040234Z AUTO 02011G20KT 9SM -RA OVC015 01/M01 A3010 RMK SLP196
  • 040224Z AUTO 03013G19KT 9SM -SN OVC015 01/M01 A3010 RMK SLP196
  • 040202Z AUTO 02015G20KT 9SM -RA BKN015 OVC019 01/M01 A3010 RMK SLP196
  • 040152Z AUTO 02014G21KT 9SM -UP OVC015 01/M01 A3010 RMK SLP196
  • 040147Z AUTO 02014G21KT 9SM -SN -UP OVC015 01/M01 A3010 RMK SLP195
  • 040129Z AUTO 02016G22KT 8SM -SN OVC015 01/M01 A3010 RMK SLP194
  • 040125Z AUTO 02014G22KT 8SM -RASN OVC015 01/M01 A3010 RMK SLP194
  • 040112Z AUTO 02015G24KT 8SM -RA -UP OVC015 01/M01 A3009 RMK SLP193
  • 040102Z AUTO 03016KT 8SM -RASN OVC015 01/M01 A3010 RMK SLP194
  • 040030Z AUTO 03015G22KT 9SM -RA OVC015 01/M01 A3009 RMK SLP191

TAF TAF CYFC
Valido dal 04 a 00 ore il 04 a 12 ore UTC


032338Z 0400/0412 04015G25KT P6SM OVC020
TEMPO 0400/0406 5SM -SHRASN BR
FM040600 03010G20KT P6SM -SHSN OVC015 RMK FCST BASED ON AUTO OBS. NXT FCST BY 040600Z



MetMap, La meteo Aeronautica in un colpo d'occhio ! - Copyright ORBIFLY Dicembre 2007 - Disclaimer

ORBIFLY MET'MAP TEAM :

Programmazione e sviluppo : Alexandra Zaïnal
Concezione : Baudouin d'Aumeries
Aiuto per la programmazione : Marc-Olivier Méhu
Supporto tecnico e logistico : Manuel Goepfert
Aiuto per la traduzione : Arnaldo La Scala

Contatto : metmap@orbifly.com




FONTI E CREDITI :

   NOAA